sensor_id;sensor_type;location;lat;lon;timestamp;temperature;humidity
78366;HTU21D;67641;59.864;30.464;2024-03-08T00:00:17;14.15;67.35
78366;HTU21D;67641;59.864;30.464;2024-03-08T00:02:48;14.13;67.49
78366;HTU21D;67641;59.864;30.464;2024-03-08T00:05:17;14.05;68.07
78366;HTU21D;67641;59.864;30.464;2024-03-08T00:07:44;14.04;68.23
78366;HTU21D;67641;59.864;30.464;2024-03-08T00:10:12;14.07;68.26
78366;HTU21D;67641;59.864;30.464;2024-03-08T00:12:44;14.06;68.46
78366;HTU21D;67641;59.864;30.464;2024-03-08T00:15:14;13.98;68.56
78366;HTU21D;67641;59.864;30.464;2024-03-08T00:17:42;13.93;68.91
78366;HTU21D;67641;59.864;30.464;2024-03-08T00:20:09;13.93;68.76
78366;HTU21D;67641;59.864;30.464;2024-03-08T00:22:37;13.93;68.61
78366;HTU21D;67641;59.864;30.464;2024-03-08T00:25:05;13.88;68.31
78366;HTU21D;67641;59.864;30.464;2024-03-08T00:27:32;13.82;67.65
78366;HTU21D;67641;59.864;30.464;2024-03-08T00:29:58;13.84;67.52
78366;HTU21D;67641;59.864;30.464;2024-03-08T00:32:25;13.86;67.31
78366;HTU21D;67641;59.864;30.464;2024-03-08T00:34:54;13.91;67.27
78366;HTU21D;67641;59.864;30.464;2024-03-08T00:37:21;13.94;67.41
78366;HTU21D;67641;59.864;30.464;2024-03-08T00:39:49;13.95;67.59
78366;HTU21D;67641;59.864;30.464;2024-03-08T00:42:19;13.95;67.63
78366;HTU21D;67641;59.864;30.464;2024-03-08T00:44:46;13.95;68.04
78366;HTU21D;67641;59.864;30.464;2024-03-08T00:47:14;13.94;68.54
78366;HTU21D;67641;59.864;30.464;2024-03-08T00:49:41;13.95;68.96
78366;HTU21D;67641;59.864;30.464;2024-03-08T00:52:08;13.95;69.19
78366;HTU21D;67641;59.864;30.464;2024-03-08T00:54:35;13.93;69.39
78366;HTU21D;67641;59.864;30.464;2024-03-08T00:57:04;13.90;69.24
78366;HTU21D;67641;59.864;30.464;2024-03-08T00:59:32;13.92;68.75
78366;HTU21D;67641;59.864;30.464;2024-03-08T01:02:00;13.95;68.43
78366;HTU21D;67641;59.864;30.464;2024-03-08T01:04:26;13.93;68.39
78366;HTU21D;67641;59.864;30.464;2024-03-08T01:06:56;13.95;68.15
78366;HTU21D;67641;59.864;30.464;2024-03-08T01:09:26;13.97;68.29
78366;HTU21D;67641;59.864;30.464;2024-03-08T01:11:54;13.96;68.55
78366;HTU21D;67641;59.864;30.464;2024-03-08T01:14:24;13.97;68.54
78366;HTU21D;67641;59.864;30.464;2024-03-08T01:16:52;13.99;68.56
78366;HTU21D;67641;59.864;30.464;2024-03-08T01:19:18;14.01;68.49
78366;HTU21D;67641;59.864;30.464;2024-03-08T01:21:45;14.04;68.09
78366;HTU21D;67641;59.864;30.464;2024-03-08T01:24:12;14.06;68.04
78366;HTU21D;67641;59.864;30.464;2024-03-08T01:26:39;14.09;67.93
78366;HTU21D;67641;59.864;30.464;2024-03-08T01:29:06;14.10;67.72
78366;HTU21D;67641;59.864;30.464;2024-03-08T01:31:32;14.12;67.70
78366;HTU21D;67641;59.864;30.464;2024-03-08T01:33:59;14.13;67.67
78366;HTU21D;67641;59.864;30.464;2024-03-08T01:36:26;14.13;67.75
78366;HTU21D;67641;59.864;30.464;2024-03-08T01:38:52;14.11;67.36
78366;HTU21D;67641;59.864;30.464;2024-03-08T01:41:19;14.14;67.40
78366;HTU21D;67641;59.864;30.464;2024-03-08T01:43:46;14.14;67.43
78366;HTU21D;67641;59.864;30.464;2024-03-08T01:46:16;14.14;67.43
78366;HTU21D;67641;59.864;30.464;2024-03-08T01:48:44;14.14;67.40
78366;HTU21D;67641;59.864;30.464;2024-03-08T01:51:12;14.14;67.81
78366;HTU21D;67641;59.864;30.464;2024-03-08T01:53:42;14.12;67.97
78366;HTU21D;67641;59.864;30.464;2024-03-08T01:56:12;14.12;68.23
78366;HTU21D;67641;59.864;30.464;2024-03-08T01:58:41;14.09;68.33
78366;HTU21D;67641;59.864;30.464;2024-03-08T02:01:14;14.08;68.20
78366;HTU21D;67641;59.864;30.464;2024-03-08T02:03:42;14.05;68.32
78366;HTU21D;67641;59.864;30.464;2024-03-08T02:06:13;14.03;68.29
78366;HTU21D;67641;59.864;30.464;2024-03-08T02:08:45;14.00;68.30
78366;HTU21D;67641;59.864;30.464;2024-03-08T02:11:12;13.98;68.15
78366;HTU21D;67641;59.864;30.464;2024-03-08T02:13:39;13.96;68.52
78366;HTU21D;67641;59.864;30.464;2024-03-08T02:16:06;13.95;67.99
78366;HTU21D;67641;59.864;30.464;2024-03-08T02:18:34;13.93;67.79
78366;HTU21D;67641;59.864;30.464;2024-03-08T02:21:02;13.90;67.74
78366;HTU21D;67641;59.864;30.464;2024-03-08T02:23:30;13.90;68.04
78366;HTU21D;67641;59.864;30.464;2024-03-08T02:25:57;13.84;68.40
78366;HTU21D;67641;59.864;30.464;2024-03-08T02:28:24;13.81;68.56
78366;HTU21D;67641;59.864;30.464;2024-03-08T02:30:55;13.79;68.45
78366;HTU21D;67641;59.864;30.464;2024-03-08T02:33:22;13.73;68.48
78366;HTU21D;67641;59.864;30.464;2024-03-08T02:35:49;13.71;68.75
78366;HTU21D;67641;59.864;30.464;2024-03-08T02:38:19;13.68;69.00
78366;HTU21D;67641;59.864;30.464;2024-03-08T02:40:47;13.68;68.94
78366;HTU21D;67641;59.864;30.464;2024-03-08T02:43:14;13.63;69.05
78366;HTU21D;67641;59.864;30.464;2024-03-08T02:45:41;13.62;69.19
78366;HTU21D;67641;59.864;30.464;2024-03-08T02:48:08;13.63;69.34
78366;HTU21D;67641;59.864;30.464;2024-03-08T02:50:35;13.61;69.15
78366;HTU21D;67641;59.864;30.464;2024-03-08T02:53:05;13.58;69.43
78366;HTU21D;67641;59.864;30.464;2024-03-08T02:55:32;13.56;69.42
78366;HTU21D;67641;59.864;30.464;2024-03-08T02:58:02;13.54;69.37
78366;HTU21D;67641;59.864;30.464;2024-03-08T03:00:30;13.53;69.03
78366;HTU21D;67641;59.864;30.464;2024-03-08T03:03:00;13.53;68.55
78366;HTU21D;67641;59.864;30.464;2024-03-08T03:05:29;13.51;68.13
78366;HTU21D;67641;59.864;30.464;2024-03-08T03:07:56;13.41;68.20
78366;HTU21D;67641;59.864;30.464;2024-03-08T03:10:24;13.37;68.27
78366;HTU21D;67641;59.864;30.464;2024-03-08T03:12:51;13.33;68.36
78366;HTU21D;67641;59.864;30.464;2024-03-08T03:15:17;13.32;68.17
78366;HTU21D;67641;59.864;30.464;2024-03-08T03:17:50;13.30;68.13
78366;HTU21D;67641;59.864;30.464;2024-03-08T03:20:18;13.24;67.97
78366;HTU21D;67641;59.864;30.464;2024-03-08T03:22:59;13.22;68.39
78366;HTU21D;67641;59.864;30.464;2024-03-08T03:25:28;13.17;68.00
78366;HTU21D;67641;59.864;30.464;2024-03-08T03:28:03;13.15;68.46
78366;HTU21D;67641;59.864;30.464;2024-03-08T03:30:30;13.15;68.30
78366;HTU21D;67641;59.864;30.464;2024-03-08T03:33:00;13.09;68.66
78366;HTU21D;67641;59.864;30.464;2024-03-08T03:35:33;13.06;68.73
78366;HTU21D;67641;59.864;30.464;2024-03-08T03:38:00;13.06;68.97
78366;HTU21D;67641;59.864;30.464;2024-03-08T03:40:39;13.06;69.17
78366;HTU21D;67641;59.864;30.464;2024-03-08T03:43:07;13.02;69.40
78366;HTU21D;67641;59.864;30.464;2024-03-08T03:45:36;12.99;69.66
78366;HTU21D;67641;59.864;30.464;2024-03-08T03:48:03;12.99;70.02
78366;HTU21D;67641;59.864;30.464;2024-03-08T03:50:30;12.93;70.18
78366;HTU21D;67641;59.864;30.464;2024-03-08T03:52:57;12.94;70.37
78366;HTU21D;67641;59.864;30.464;2024-03-08T03:55:24;12.90;70.58
78366;HTU21D;67641;59.864;30.464;2024-03-08T03:57:51;12.90;70.82
78366;HTU21D;67641;59.864;30.464;2024-03-08T04:00:18;12.91;71.32
78366;HTU21D;67641;59.864;30.464;2024-03-08T04:02:45;12.92;71.58
78366;HTU21D;67641;59.864;30.464;2024-03-08T04:05:13;12.90;71.54
78366;HTU21D;67641;59.864;30.464;2024-03-08T04:07:39;12.91;71.54
78366;HTU21D;67641;59.864;30.464;2024-03-08T04:10:07;12.90;71.86
78366;HTU21D;67641;59.864;30.464;2024-03-08T04:12:35;12.82;72.48
78366;HTU21D;67641;59.864;30.464;2024-03-08T04:15:02;12.87;72.72
78366;HTU21D;67641;59.864;30.464;2024-03-08T04:17:28;12.90;72.96
78366;HTU21D;67641;59.864;30.464;2024-03-08T04:19:55;12.92;73.47
78366;HTU21D;67641;59.864;30.464;2024-03-08T04:22:21;12.97;73.51
78366;HTU21D;67641;59.864;30.464;2024-03-08T04:24:48;13.04;73.50
78366;HTU21D;67641;59.864;30.464;2024-03-08T04:27:15;13.09;73.47
78366;HTU21D;67641;59.864;30.464;2024-03-08T04:29:42;13.15;73.32
78366;HTU21D;67641;59.864;30.464;2024-03-08T04:32:10;13.35;72.65
78366;HTU21D;67641;59.864;30.464;2024-03-08T04:34:37;13.75;71.29
78366;HTU21D;67641;59.864;30.464;2024-03-08T04:37:04;14.13;69.73
78366;HTU21D;67641;59.864;30.464;2024-03-08T04:39:31;14.60;68.26
78366;HTU21D;67641;59.864;30.464;2024-03-08T04:42:01;15.03;66.88
78366;HTU21D;67641;59.864;30.464;2024-03-08T04:44:30;15.55;65.01
78366;HTU21D;67641;59.864;30.464;2024-03-08T04:46:57;15.97;63.67
78366;HTU21D;67641;59.864;30.464;2024-03-08T04:49:24;16.42;62.42
78366;HTU21D;67641;59.864;30.464;2024-03-08T04:51:51;16.79;60.83
78366;HTU21D;67641;59.864;30.464;2024-03-08T04:54:18;16.96;60.19
78366;HTU21D;67641;59.864;30.464;2024-03-08T04:56:46;17.32;59.14
78366;HTU21D;67641;59.864;30.464;2024-03-08T04:59:12;17.74;57.72
78366;HTU21D;67641;59.864;30.464;2024-03-08T05:01:40;18.09;56.73
78366;HTU21D;67641;59.864;30.464;2024-03-08T05:04:06;18.21;55.97
78366;HTU21D;67641;59.864;30.464;2024-03-08T05:06:33;18.56;55.23
78366;HTU21D;67641;59.864;30.464;2024-03-08T05:08:59;18.91;54.26
78366;HTU21D;67641;59.864;30.464;2024-03-08T05:11:26;19.35;52.64
78366;HTU21D;67641;59.864;30.464;2024-03-08T05:13:53;19.84;51.12
78366;HTU21D;67641;59.864;30.464;2024-03-08T05:16:20;20.20;50.24
78366;HTU21D;67641;59.864;30.464;2024-03-08T05:18:48;20.68;48.83
78366;HTU21D;67641;59.864;30.464;2024-03-08T05:21:15;21.00;48.16
78366;HTU21D;67641;59.864;30.464;2024-03-08T05:23:43;21.32;47.26
78366;HTU21D;67641;59.864;30.464;2024-03-08T05:26:10;21.70;46.47
78366;HTU21D;67641;59.864;30.464;2024-03-08T05:28:37;21.84;46.33
78366;HTU21D;67641;59.864;30.464;2024-03-08T05:31:03;22.44;45.09
78366;HTU21D;67641;59.864;30.464;2024-03-08T05:33:30;23.10;43.57
78366;HTU21D;67641;59.864;30.464;2024-03-08T05:35:57;23.75;42.05
78366;HTU21D;67641;59.864;30.464;2024-03-08T05:38:25;24.38;40.60
78366;HTU21D;67641;59.864;30.464;2024-03-08T05:40:52;24.79;39.78
78366;HTU21D;67641;59.864;30.464;2024-03-08T05:43:18;25.13;38.65
78366;HTU21D;67641;59.864;30.464;2024-03-08T05:45:46;25.28;38.39
78366;HTU21D;67641;59.864;30.464;2024-03-08T05:48:13;25.25;38.02
78366;HTU21D;67641;59.864;30.464;2024-03-08T05:50:40;25.03;38.70
78366;HTU21D;67641;59.864;30.464;2024-03-08T05:53:06;25.02;38.93
78366;HTU21D;67641;59.864;30.464;2024-03-08T05:55:33;24.66;39.62
78366;HTU21D;67641;59.864;30.464;2024-03-08T05:58:02;24.61;39.74
78366;HTU21D;67641;59.864;30.464;2024-03-08T06:00:29;25.08;38.47
78366;HTU21D;67641;59.864;30.464;2024-03-08T06:02:57;25.68;37.24
78366;HTU21D;67641;59.864;30.464;2024-03-08T06:05:25;25.93;36.47
78366;HTU21D;67641;59.864;30.464;2024-03-08T06:07:51;26.04;37.10
78366;HTU21D;67641;59.864;30.464;2024-03-08T06:10:19;26.39;36.24
78366;HTU21D;67641;59.864;30.464;2024-03-08T06:12:46;26.73;35.35
78366;HTU21D;67641;59.864;30.464;2024-03-08T06:15:13;26.80;35.11
78366;HTU21D;67641;59.864;30.464;2024-03-08T06:17:42;26.90;34.84
78366;HTU21D;67641;59.864;30.464;2024-03-08T06:20:09;26.57;35.58
78366;HTU21D;67641;59.864;30.464;2024-03-08T06:22:39;26.99;34.94
78366;HTU21D;67641;59.864;30.464;2024-03-08T06:25:11;27.36;34.60
78366;HTU21D;67641;59.864;30.464;2024-03-08T06:27:41;27.39;34.55
78366;HTU21D;67641;59.864;30.464;2024-03-08T06:30:13;26.95;35.12
78366;HTU21D;67641;59.864;30.464;2024-03-08T06:32:42;26.95;35.34
78366;HTU21D;67641;59.864;30.464;2024-03-08T06:35:09;27.25;35.05
78366;HTU21D;67641;59.864;30.464;2024-03-08T06:37:36;28.18;33.19
78366;HTU21D;67641;59.864;30.464;2024-03-08T06:40:03;28.59;32.53
78366;HTU21D;67641;59.864;30.464;2024-03-08T06:42:30;27.74;33.54
78366;HTU21D;67641;59.864;30.464;2024-03-08T06:45:01;27.87;33.67
78366;HTU21D;67641;59.864;30.464;2024-03-08T06:47:31;27.57;34.17
78366;HTU21D;67641;59.864;30.464;2024-03-08T06:49:59;27.60;34.47
78366;HTU21D;67641;59.864;30.464;2024-03-08T06:52:26;28.63;32.59
78366;HTU21D;67641;59.864;30.464;2024-03-08T06:54:53;28.31;33.05
78366;HTU21D;67641;59.864;30.464;2024-03-08T06:57:21;28.41;32.87
78366;HTU21D;67641;59.864;30.464;2024-03-08T06:59:50;28.93;32.48
78366;HTU21D;67641;59.864;30.464;2024-03-08T07:02:18;29.62;31.27
78366;HTU21D;67641;59.864;30.464;2024-03-08T07:04:45;29.46;31.93
78366;HTU21D;67641;59.864;30.464;2024-03-08T07:07:12;28.24;33.51
78366;HTU21D;67641;59.864;30.464;2024-03-08T07:09:38;27.53;34.63
78366;HTU21D;67641;59.864;30.464;2024-03-08T07:12:05;27.50;35.15
78366;HTU21D;67641;59.864;30.464;2024-03-08T07:14:32;27.90;34.66
78366;HTU21D;67641;59.864;30.464;2024-03-08T07:16:59;28.06;34.13
78366;HTU21D;67641;59.864;30.464;2024-03-08T07:19:26;27.52;35.03
78366;HTU21D;67641;59.864;30.464;2024-03-08T07:21:53;27.73;35.66
78366;HTU21D;67641;59.864;30.464;2024-03-08T07:24:21;28.27;34.29
78366;HTU21D;67641;59.864;30.464;2024-03-08T07:27:22;26.72;37.16
78366;HTU21D;67641;59.864;30.464;2024-03-08T07:29:48;27.25;36.91
78366;HTU21D;67641;59.864;30.464;2024-03-08T07:32:15;28.28;35.66
78366;HTU21D;67641;59.864;30.464;2024-03-08T07:34:48;27.66;35.70
78366;HTU21D;67641;59.864;30.464;2024-03-08T07:37:17;26.76;37.79
78366;HTU21D;67641;59.864;30.464;2024-03-08T07:39:45;27.13;37.27
78366;HTU21D;67641;59.864;30.464;2024-03-08T07:42:12;27.06;37.77
78366;HTU21D;67641;59.864;30.464;2024-03-08T07:44:38;27.25;37.29
78366;HTU21D;67641;59.864;30.464;2024-03-08T07:47:06;26.96;37.75
78366;HTU21D;67641;59.864;30.464;2024-03-08T07:49:36;26.45;38.87
78366;HTU21D;67641;59.864;30.464;2024-03-08T07:52:04;25.50;40.75
78366;HTU21D;67641;59.864;30.464;2024-03-08T07:54:31;25.01;42.74
78366;HTU21D;67641;59.864;30.464;2024-03-08T07:56:57;24.90;42.61
78366;HTU21D;67641;59.864;30.464;2024-03-08T07:59:24;25.17;40.95
78366;HTU21D;67641;59.864;30.464;2024-03-08T08:01:50;25.88;40.07
78366;HTU21D;67641;59.864;30.464;2024-03-08T08:04:17;25.91;39.85
78366;HTU21D;67641;59.864;30.464;2024-03-08T08:06:45;25.93;39.85
78366;HTU21D;67641;59.864;30.464;2024-03-08T08:09:12;25.78;40.37
78366;HTU21D;67641;59.864;30.464;2024-03-08T08:11:41;26.27;38.87
78366;HTU21D;67641;59.864;30.464;2024-03-08T08:14:13;26.48;38.28
78366;HTU21D;67641;59.864;30.464;2024-03-08T08:16:40;26.55;38.27
78366;HTU21D;67641;59.864;30.464;2024-03-08T08:19:09;26.03;39.34
78366;HTU21D;67641;59.864;30.464;2024-03-08T08:21:35;26.11;39.32
78366;HTU21D;67641;59.864;30.464;2024-03-08T08:24:05;26.02;38.98
78366;HTU21D;67641;59.864;30.464;2024-03-08T08:26:32;26.19;38.64
78366;HTU21D;67641;59.864;30.464;2024-03-08T08:29:00;26.16;38.53
78366;HTU21D;67641;59.864;30.464;2024-03-08T08:31:26;25.62;40.45
78366;HTU21D;67641;59.864;30.464;2024-03-08T08:33:53;25.37;40.56
78366;HTU21D;67641;59.864;30.464;2024-03-08T08:36:24;25.28;41.11
78366;HTU21D;67641;59.864;30.464;2024-03-08T08:38:51;25.49;40.65
78366;HTU21D;67641;59.864;30.464;2024-03-08T08:41:22;25.13;40.79
78366;HTU21D;67641;59.864;30.464;2024-03-08T08:43:49;25.21;40.68
78366;HTU21D;67641;59.864;30.464;2024-03-08T08:46:17;25.39;40.68
78366;HTU21D;67641;59.864;30.464;2024-03-08T08:48:44;25.31;41.06
78366;HTU21D;67641;59.864;30.464;2024-03-08T08:51:14;25.34;41.97
78366;HTU21D;67641;59.864;30.464;2024-03-08T08:53:42;25.31;42.36
78366;HTU21D;67641;59.864;30.464;2024-03-08T08:56:13;25.09;42.70
78366;HTU21D;67641;59.864;30.464;2024-03-08T08:58:40;25.04;42.96
78366;HTU21D;67641;59.864;30.464;2024-03-08T09:01:09;24.95;43.64
78366;HTU21D;67641;59.864;30.464;2024-03-08T09:03:37;24.44;44.45
78366;HTU21D;67641;59.864;30.464;2024-03-08T09:06:04;24.42;44.32
78366;HTU21D;67641;59.864;30.464;2024-03-08T09:08:31;24.74;42.94
78366;HTU21D;67641;59.864;30.464;2024-03-08T09:10:58;24.63;43.67
78366;HTU21D;67641;59.864;30.464;2024-03-08T09:13:26;24.47;43.42
78366;HTU21D;67641;59.864;30.464;2024-03-08T09:15:52;24.79;42.77
78366;HTU21D;67641;59.864;30.464;2024-03-08T09:18:19;24.93;43.22
78366;HTU21D;67641;59.864;30.464;2024-03-08T09:20:46;24.57;44.74
78366;HTU21D;67641;59.864;30.464;2024-03-08T09:23:13;24.61;44.50
78366;HTU21D;67641;59.864;30.464;2024-03-08T09:25:41;24.94;42.42
78366;HTU21D;67641;59.864;30.464;2024-03-08T09:28:07;25.03;43.10
78366;HTU21D;67641;59.864;30.464;2024-03-08T09:30:35;25.53;41.99
78366;HTU21D;67641;59.864;30.464;2024-03-08T09:33:05;25.67;39.56
78366;HTU21D;67641;59.864;30.464;2024-03-08T09:35:32;25.61;39.79
78366;HTU21D;67641;59.864;30.464;2024-03-08T09:37:59;25.60;40.38
78366;HTU21D;67641;59.864;30.464;2024-03-08T09:40:26;25.49;40.76
78366;HTU21D;67641;59.864;30.464;2024-03-08T09:42:53;26.01;40.23
78366;HTU21D;67641;59.864;30.464;2024-03-08T09:45:24;26.24;39.45
78366;HTU21D;67641;59.864;30.464;2024-03-08T09:47:52;26.01;39.71
78366;HTU21D;67641;59.864;30.464;2024-03-08T09:50:19;26.76;38.39
78366;HTU21D;67641;59.864;30.464;2024-03-08T09:52:49;27.60;36.67
78366;HTU21D;67641;59.864;30.464;2024-03-08T09:55:16;28.15;35.82
78366;HTU21D;67641;59.864;30.464;2024-03-08T09:57:49;28.47;34.75
78366;HTU21D;67641;59.864;30.464;2024-03-08T10:00:35;28.65;34.92
78366;HTU21D;67641;59.864;30.464;2024-03-08T10:03:03;28.02;35.08
78366;HTU21D;67641;59.864;30.464;2024-03-08T10:05:32;27.17;37.24
78366;HTU21D;67641;59.864;30.464;2024-03-08T10:07:59;26.71;38.82
78366;HTU21D;67641;59.864;30.464;2024-03-08T10:10:26;27.15;37.78
78366;HTU21D;67641;59.864;30.464;2024-03-08T10:12:53;27.39;36.43
78366;HTU21D;67641;59.864;30.464;2024-03-08T10:15:20;27.02;37.23
78366;HTU21D;67641;59.864;30.464;2024-03-08T10:17:47;26.86;37.24
78366;HTU21D;67641;59.864;30.464;2024-03-08T10:20:16;26.33;38.69
78366;HTU21D;67641;59.864;30.464;2024-03-08T10:22:43;26.55;38.54
78366;HTU21D;67641;59.864;30.464;2024-03-08T10:25:11;26.69;38.41
78366;HTU21D;67641;59.864;30.464;2024-03-08T10:27:39;26.16;38.98
78366;HTU21D;67641;59.864;30.464;2024-03-08T10:30:18;26.32;38.70
78366;HTU21D;67641;59.864;30.464;2024-03-08T10:32:48;26.53;37.41
78366;HTU21D;67641;59.864;30.464;2024-03-08T10:35:15;27.27;36.63
78366;HTU21D;67641;59.864;30.464;2024-03-08T10:37:48;27.53;36.10
78366;HTU21D;67641;59.864;30.464;2024-03-08T10:40:17;28.05;34.64
78366;HTU21D;67641;59.864;30.464;2024-03-08T10:42:52;27.96;34.89
78366;HTU21D;67641;59.864;30.464;2024-03-08T10:47:49;27.39;36.19
78366;HTU21D;67641;59.864;30.464;2024-03-08T10:50:21;26.97;37.49
78366;HTU21D;67641;59.864;30.464;2024-03-08T10:52:52;27.19;37.59
78366;HTU21D;67641;59.864;30.464;2024-03-08T10:55:19;27.13;37.65
78366;HTU21D;67641;59.864;30.464;2024-03-08T10:57:48;27.06;37.32
78366;HTU21D;67641;59.864;30.464;2024-03-08T11:00:15;26.86;38.25
78366;HTU21D;67641;59.864;30.464;2024-03-08T11:02:45;26.69;38.23
78366;HTU21D;67641;59.864;30.464;2024-03-08T11:05:32;26.46;39.14
78366;HTU21D;67641;59.864;30.464;2024-03-08T11:08:02;26.54;38.47
78366;HTU21D;67641;59.864;30.464;2024-03-08T11:10:30;26.85;36.05
78366;HTU21D;67641;59.864;30.464;2024-03-08T11:12:57;27.00;33.63
78366;HTU21D;67641;59.864;30.464;2024-03-08T11:15:24;27.17;34.21
78366;HTU21D;67641;59.864;30.464;2024-03-08T11:17:51;27.04;34.16
78366;HTU21D;67641;59.864;30.464;2024-03-08T11:20:20;27.39;33.76
78366;HTU21D;67641;59.864;30.464;2024-03-08T11:22:52;27.17;34.24
78366;HTU21D;67641;59.864;30.464;2024-03-08T11:25:39;27.07;34.90
78366;HTU21D;67641;59.864;30.464;2024-03-08T11:28:17;26.42;37.12
78366;HTU21D;67641;59.864;30.464;2024-03-08T11:33:31;26.49;38.26
78366;HTU21D;67641;59.864;30.464;2024-03-08T11:38:41;26.04;40.62
78366;HTU21D;67641;59.864;30.464;2024-03-08T11:41:08;26.38;40.07
78366;HTU21D;67641;59.864;30.464;2024-03-08T11:43:35;26.31;39.12
78366;HTU21D;67641;59.864;30.464;2024-03-08T11:46:11;26.28;37.41
78366;HTU21D;67641;59.864;30.464;2024-03-08T11:48:43;26.26;36.53
78366;HTU21D;67641;59.864;30.464;2024-03-08T11:51:16;25.99;37.54
78366;HTU21D;67641;59.864;30.464;2024-03-08T11:53:46;25.96;37.53
78366;HTU21D;67641;59.864;30.464;2024-03-08T11:56:16;26.17;37.31
78366;HTU21D;67641;59.864;30.464;2024-03-08T11:58:53;25.86;38.45
78366;HTU21D;67641;59.864;30.464;2024-03-08T12:01:20;26.05;37.29
78366;HTU21D;67641;59.864;30.464;2024-03-08T12:03:56;25.94;36.59
78366;HTU21D;67641;59.864;30.464;2024-03-08T12:06:27;25.63;38.40
78366;HTU21D;67641;59.864;30.464;2024-03-08T12:08:53;25.01;39.65
78366;HTU21D;67641;59.864;30.464;2024-03-08T12:11:20;24.64;40.11
78366;HTU21D;67641;59.864;30.464;2024-03-08T12:13:49;24.14;41.20
78366;HTU21D;67641;59.864;30.464;2024-03-08T12:16:20;23.72;42.84
78366;HTU21D;67641;59.864;30.464;2024-03-08T12:18:51;23.56;43.35
78366;HTU21D;67641;59.864;30.464;2024-03-08T12:21:21;23.40;42.60
78366;HTU21D;67641;59.864;30.464;2024-03-08T12:24:09;23.16;43.47
78366;HTU21D;67641;59.864;30.464;2024-03-08T12:26:37;22.73;44.07
78366;HTU21D;67641;59.864;30.464;2024-03-08T12:29:21;22.41;45.28
78366;HTU21D;67641;59.864;30.464;2024-03-08T12:31:52;22.52;45.73
78366;HTU21D;67641;59.864;30.464;2024-03-08T12:34:24;22.48;46.58
78366;HTU21D;67641;59.864;30.464;2024-03-08T12:36:52;22.75;46.51
78366;HTU21D;67641;59.864;30.464;2024-03-08T12:39:21;22.68;46.30
78366;HTU21D;67641;59.864;30.464;2024-03-08T12:41:54;22.44;46.25
78366;HTU21D;67641;59.864;30.464;2024-03-08T12:44:21;22.38;45.93
78366;HTU21D;67641;59.864;30.464;2024-03-08T12:46:48;22.27;47.02
78366;HTU21D;67641;59.864;30.464;2024-03-08T12:49:15;22.17;47.44
78366;HTU21D;67641;59.864;30.464;2024-03-08T12:51:44;22.08;47.34
78366;HTU21D;67641;59.864;30.464;2024-03-08T12:54:12;21.89;47.96
78366;HTU21D;67641;59.864;30.464;2024-03-08T12:56:38;21.76;49.43
78366;HTU21D;67641;59.864;30.464;2024-03-08T12:59:07;21.70;50.07
78366;HTU21D;67641;59.864;30.464;2024-03-08T13:01:34;21.69;50.75
78366;HTU21D;67641;59.864;30.464;2024-03-08T13:04:04;22.47;48.26
78366;HTU21D;67641;59.864;30.464;2024-03-08T13:06:32;23.38;43.58
78366;HTU21D;67641;59.864;30.464;2024-03-08T13:08:59;24.08;42.70
78366;HTU21D;67641;59.864;30.464;2024-03-08T13:11:32;24.48;42.19
78366;HTU21D;67641;59.864;30.464;2024-03-08T13:14:04;24.87;41.18
78366;HTU21D;67641;59.864;30.464;2024-03-08T13:16:33;24.99;41.39
78366;HTU21D;67641;59.864;30.464;2024-03-08T13:19:01;25.53;40.81
78366;HTU21D;67641;59.864;30.464;2024-03-08T13:21:27;25.56;40.40
78366;HTU21D;67641;59.864;30.464;2024-03-08T13:23:56;25.65;39.54
78366;HTU21D;67641;59.864;30.464;2024-03-08T13:26:25;25.86;38.04
78366;HTU21D;67641;59.864;30.464;2024-03-08T13:28:56;25.73;38.71
78366;HTU21D;67641;59.864;30.464;2024-03-08T13:31:24;25.42;39.95
78366;HTU21D;67641;59.864;30.464;2024-03-08T13:33:51;25.37;38.99
78366;HTU21D;67641;59.864;30.464;2024-03-08T13:36:24;25.38;39.84
78366;HTU21D;67641;59.864;30.464;2024-03-08T13:38:55;25.54;39.90
78366;HTU21D;67641;59.864;30.464;2024-03-08T13:41:25;25.71;39.51
78366;HTU21D;67641;59.864;30.464;2024-03-08T13:43:51;25.90;39.04
78366;HTU21D;67641;59.864;30.464;2024-03-08T13:46:19;25.54;38.22
78366;HTU21D;67641;59.864;30.464;2024-03-08T13:48:46;25.18;39.10
78366;HTU21D;67641;59.864;30.464;2024-03-08T13:51:13;25.03;39.78
78366;HTU21D;67641;59.864;30.464;2024-03-08T13:53:41;25.07;39.68
78366;HTU21D;67641;59.864;30.464;2024-03-08T13:56:08;24.82;39.98
78366;HTU21D;67641;59.864;30.464;2024-03-08T13:58:37;24.05;41.31
78366;HTU21D;67641;59.864;30.464;2024-03-08T14:01:03;23.14;43.32
78366;HTU21D;67641;59.864;30.464;2024-03-08T14:03:38;23.05;43.42
78366;HTU21D;67641;59.864;30.464;2024-03-08T14:06:08;23.55;43.29
78366;HTU21D;67641;59.864;30.464;2024-03-08T14:08:36;23.76;43.42
78366;HTU21D;67641;59.864;30.464;2024-03-08T14:11:04;23.90;44.41
78366;HTU21D;67641;59.864;30.464;2024-03-08T14:13:42;23.77;44.13
78366;HTU21D;67641;59.864;30.464;2024-03-08T14:16:14;22.83;46.09
78366;HTU21D;67641;59.864;30.464;2024-03-08T14:18:41;22.90;46.71
78366;HTU21D;67641;59.864;30.464;2024-03-08T14:21:08;23.24;46.02
78366;HTU21D;67641;59.864;30.464;2024-03-08T14:23:34;23.64;44.78
78366;HTU21D;67641;59.864;30.464;2024-03-08T14:26:05;23.20;46.44
78366;HTU21D;67641;59.864;30.464;2024-03-08T14:28:33;22.13;48.85
78366;HTU21D;67641;59.864;30.464;2024-03-08T14:31:00;21.53;50.88
78366;HTU21D;67641;59.864;30.464;2024-03-08T14:33:29;21.13;52.24
78366;HTU21D;67641;59.864;30.464;2024-03-08T14:35:56;20.58;55.05
78366;HTU21D;67641;59.864;30.464;2024-03-08T14:38:23;20.17;55.88
78366;HTU21D;67641;59.864;30.464;2024-03-08T14:40:53;19.90;56.60
78366;HTU21D;67641;59.864;30.464;2024-03-08T14:43:21;19.75;57.42
78366;HTU21D;67641;59.864;30.464;2024-03-08T14:45:48;19.65;57.14
78366;HTU21D;67641;59.864;30.464;2024-03-08T14:48:15;19.45;57.88
78366;HTU21D;67641;59.864;30.464;2024-03-08T14:50:42;19.42;57.39
78366;HTU21D;67641;59.864;30.464;2024-03-08T14:53:10;19.37;57.39
78366;HTU21D;67641;59.864;30.464;2024-03-08T14:55:39;19.42;57.67
78366;HTU21D;67641;59.864;30.464;2024-03-08T14:58:05;19.53;57.78
78366;HTU21D;67641;59.864;30.464;2024-03-08T15:00:32;19.54;56.96
78366;HTU21D;67641;59.864;30.464;2024-03-08T15:03:03;19.44;56.96
78366;HTU21D;67641;59.864;30.464;2024-03-08T15:05:31;19.37;57.08
78366;HTU21D;67641;59.864;30.464;2024-03-08T15:07:59;19.33;58.45
78366;HTU21D;67641;59.864;30.464;2024-03-08T15:10:36;19.35;59.18
78366;HTU21D;67641;59.864;30.464;2024-03-08T15:13:03;19.31;60.55
78366;HTU21D;67641;59.864;30.464;2024-03-08T15:15:40;19.22;61.25
78366;HTU21D;67641;59.864;30.464;2024-03-08T15:18:09;19.05;61.45